createdAt,value
2023-04-02T00:01:33.927Z,83.57
2023-04-02T00:04:00.810Z,83.04
2023-04-02T00:06:33.283Z,82.68
2023-04-02T00:09:21.526Z,83.96
2023-04-02T00:11:54.968Z,83.70
2023-04-02T00:14:23.508Z,83.43
2023-04-02T00:16:52.121Z,85.39
2023-04-02T00:19:36.208Z,85.19
2023-04-02T00:22:07.649Z,85.58
2023-04-02T00:24:34.819Z,85.56
2023-04-02T00:27:01.811Z,86.41
2023-04-02T00:29:28.678Z,86.83
2023-04-02T00:31:59.396Z,86.07
2023-04-02T00:34:31.906Z,85.78
2023-04-02T00:36:59.557Z,84.12
2023-04-02T00:39:34.592Z,84.21
2023-04-02T00:42:05.831Z,83.40
2023-04-02T00:44:38.055Z,83.26
2023-04-02T00:47:17.634Z,82.94
2023-04-02T00:49:44.709Z,82.71
2023-04-02T00:52:18.804Z,83.25
2023-04-02T00:54:51.094Z,82.59
2023-04-02T00:57:25.842Z,82.43
2023-04-02T00:59:57.921Z,83.11
2023-04-02T01:02:28.707Z,83.37
2023-04-02T01:05:00.128Z,82.98
2023-04-02T01:07:37.703Z,82.27
2023-04-02T01:10:26.562Z,84.01
2023-04-02T01:13:11.747Z,83.26
2023-04-02T01:15:44.043Z,83.90
2023-04-02T01:18:18.768Z,85.14
2023-04-02T01:21:11.168Z,84.99
2023-04-02T01:23:44.299Z,85.41
2023-04-02T01:26:19.206Z,85.41
2023-04-02T01:28:49.423Z,86.44
2023-04-02T01:31:16.717Z,86.63
2023-04-02T01:33:43.923Z,87.41
2023-04-02T01:36:16.533Z,86.94
2023-04-02T01:39:06.101Z,86.99
2023-04-02T01:41:43.876Z,86.98
2023-04-02T01:44:18.086Z,86.86
2023-04-02T01:46:49.379Z,86.18
2023-04-02T01:49:21.567Z,86.40
2023-04-02T01:51:56.784Z,85.97
2023-04-02T01:54:29.111Z,86.28
2023-04-02T01:56:57.701Z,86.02
2023-04-02T01:59:26.545Z,85.40
2023-04-02T02:02:04.051Z,85.64
2023-04-02T02:04:34.202Z,85.58
2023-04-02T02:07:02.556Z,85.68
2023-04-02T02:09:35.666Z,85.87
2023-04-02T02:12:04.112Z,85.88
2023-04-02T02:14:31.931Z,87.13
2023-04-02T02:17:02.532Z,86.24
2023-04-02T02:19:56.122Z,85.33
2023-04-02T02:22:29.188Z,88.92
2023-04-02T02:24:57.809Z,86.12
2023-04-02T02:27:25.250Z,85.33
2023-04-02T02:30:16.630Z,85.12
2023-04-02T02:32:55.011Z,86.46
2023-04-02T02:35:23.362Z,85.00
2023-04-02T02:38:14.416Z,84.78
2023-04-02T02:40:46.300Z,85.86
2023-04-02T02:43:16.975Z,85.95
2023-04-02T02:45:47.442Z,83.79
2023-04-02T02:48:18.855Z,83.67
2023-04-02T02:50:46.193Z,83.90
2023-04-02T02:53:23.552Z,83.78
2023-04-02T02:55:59.652Z,83.51
2023-04-02T02:58:34.519Z,84.63
2023-04-02T03:01:21.949Z,83.46
2023-04-02T03:03:54.286Z,83.27
2023-04-02T03:06:22.670Z,83.21
2023-04-02T03:09:05.276Z,84.19
2023-04-02T03:12:02.292Z,84.01
2023-04-02T03:14:38.181Z,82.71
2023-04-02T03:17:21.134Z,82.92
2023-04-02T03:19:57.805Z,83.97
2023-04-02T03:22:38.747Z,81.20
2023-04-02T03:25:23.545Z,80.23
2023-04-02T03:27:57.104Z,81.82
2023-04-02T03:30:42.416Z,80.77
2023-04-02T03:33:25.473Z,80.23
2023-04-02T03:36:38.559Z,82.54
2023-04-02T03:39:18.609Z,82.41
2023-04-02T03:41:56.587Z,83.28
2023-04-02T03:44:33.572Z,83.19
2023-04-02T03:47:16.706Z,83.87
2023-04-02T03:49:52.386Z,83.95
2023-04-02T03:52:29.913Z,83.20
2023-04-02T03:55:02.947Z,83.68
2023-04-02T03:57:34.909Z,83.83
2023-04-02T04:00:14.571Z,83.69
2023-04-02T04:02:46.559Z,82.37
2023-04-02T04:05:30.040Z,84.79
2023-04-02T04:08:08.339Z,83.20
2023-04-02T04:10:36.274Z,82.66
2023-04-02T04:13:09.464Z,83.38
2023-04-02T04:15:45.768Z,82.92
2023-04-02T04:18:47.537Z,82.20
2023-04-02T04:21:30.310Z,81.89
2023-04-02T04:24:16.666Z,81.54
2023-04-02T04:26:57.942Z,81.01
2023-04-02T04:29:50.374Z,81.71
2023-04-02T04:32:58.941Z,80.37
2023-04-02T04:35:32.710Z,77.15
2023-04-02T04:38:12.338Z,76.45
2023-04-02T04:40:54.188Z,76.81
2023-04-02T04:43:50.171Z,76.55
2023-04-02T04:46:23.416Z,76.30
2023-04-02T04:49:09.905Z,76.75
2023-04-02T04:51:52.197Z,76.62
2023-04-02T04:54:20.556Z,75.59
2023-04-02T04:57:03.229Z,73.05
2023-04-02T05:00:13.415Z,70.55
2023-04-02T05:02:49.008Z,66.86
2023-04-02T05:05:25.186Z,63.14
2023-04-02T05:08:27.225Z,60.40
2023-04-02T05:11:03.626Z,60.36
2023-04-02T05:13:44.467Z,61.02
2023-04-02T05:16:16.464Z,57.67
2023-04-02T05:18:49.293Z,55.61
2023-04-02T05:21:39.920Z,55.42
2023-04-02T05:24:32.643Z,54.93
2023-04-02T05:27:10.160Z,51.42
2023-04-02T05:29:41.803Z,53.16
2023-04-02T05:32:21.329Z,54.55
2023-04-02T05:34:52.932Z,52.75
2023-04-02T05:37:23.322Z,54.55
2023-04-02T05:39:55.790Z,56.69
2023-04-02T05:42:37.903Z,56.89
2023-04-02T05:45:28.182Z,58.47
2023-04-02T05:48:02.102Z,57.84
2023-04-02T05:50:43.414Z,57.94
2023-04-02T05:53:25.842Z,60.91
2023-04-02T05:56:02.440Z,61.35
2023-04-02T05:58:38.692Z,60.40
2023-04-02T06:01:39.667Z,60.16
2023-04-02T06:04:27.086Z,60.80
2023-04-02T06:07:09.602Z,60.10
2023-04-02T06:09:56.622Z,55.55
2023-04-02T06:12:47.629Z,52.42
2023-04-02T06:15:21.774Z,50.66
2023-04-02T06:17:52.432Z,47.61
2023-04-02T06:20:21.458Z,45.43
2023-04-02T06:22:53.112Z,42.65
2023-04-02T06:25:27.275Z,43.24
2023-04-02T06:27:58.369Z,42.75
2023-04-02T06:30:32.189Z,42.71
2023-04-02T06:33:00.198Z,41.65
2023-04-02T06:35:28.865Z,40.77
2023-04-02T06:38:02.803Z,40.87
2023-04-02T06:40:39.834Z,42.35
2023-04-02T06:43:37.934Z,42.16
2023-04-02T06:46:31.165Z,40.22
2023-04-02T06:49:25.933Z,43.07
2023-04-02T06:52:00.638Z,43.34
2023-04-02T06:54:28.877Z,46.17
2023-04-02T06:57:00.383Z,47.69
2023-04-02T06:59:40.070Z,45.23
2023-04-02T07:02:33.764Z,44.03
2023-04-02T07:05:06.319Z,44.33
2023-04-02T07:07:35.699Z,43.23
2023-04-02T07:10:07.167Z,42.35
2023-04-02T07:12:34.180Z,41.71
2023-04-02T07:15:00.993Z,40.21
2023-04-02T07:17:28.095Z,39.75
2023-04-02T07:19:55.001Z,38.79
2023-04-02T07:22:23.062Z,42.04
2023-04-02T07:24:54.264Z,43.31
2023-04-02T07:40:23.160Z,53.02
2023-04-02T07:42:50.425Z,53.14
2023-04-02T07:45:17.368Z,54.57
2023-04-02T07:47:44.635Z,54.96
2023-04-02T07:50:11.522Z,56.40
2023-04-02T07:52:42.725Z,57.77
2023-04-02T07:55:15.632Z,59.07
2023-04-02T07:57:52.066Z,59.14
2023-04-02T08:00:20.722Z,60.37
2023-04-02T08:02:47.993Z,62.18
2023-04-02T08:05:16.216Z,62.48
2023-04-02T08:07:43.207Z,63.40
2023-04-02T08:10:12.775Z,63.61
2023-04-02T08:12:39.706Z,64.10
2023-04-02T08:15:07.549Z,64.00
2023-04-02T08:17:34.397Z,64.58
2023-04-02T08:20:01.896Z,65.21
2023-04-02T08:22:29.556Z,65.42
2023-04-02T08:24:57.279Z,65.23
2023-04-02T08:27:25.126Z,65.22
2023-04-02T08:29:52.514Z,65.19
2023-04-02T08:32:19.481Z,63.77
2023-04-02T08:34:46.466Z,62.54
2023-04-02T08:37:13.910Z,62.48
2023-04-02T08:39:41.354Z,60.86
2023-04-02T08:42:30.508Z,57.95
2023-04-02T08:45:25.450Z,56.69
2023-04-02T08:47:56.557Z,55.83
2023-04-02T08:50:36.422Z,55.86
2023-04-02T08:53:23.124Z,55.12
2023-04-02T08:55:49.957Z,54.43
2023-04-02T08:58:44.273Z,54.56
2023-04-02T09:01:31.708Z,54.88
2023-04-02T09:03:59.739Z,54.07
2023-04-02T09:06:29.295Z,54.38
2023-04-02T09:08:58.224Z,55.27
2023-04-02T09:11:34.157Z,56.05
2023-04-02T09:14:06.586Z,54.98
2023-04-02T09:16:43.565Z,54.63
2023-04-02T09:19:20.046Z,55.12
2023-04-02T09:22:16.603Z,55.04
2023-04-02T09:24:43.686Z,57.28
2023-04-02T09:27:23.077Z,56.35
2023-04-02T09:29:55.697Z,57.67
2023-04-02T09:32:50.599Z,57.06
2023-04-02T09:35:26.015Z,56.46
2023-04-02T09:38:11.774Z,55.29
2023-04-02T09:40:54.155Z,55.80
2023-04-02T09:43:25.602Z,53.45
2023-04-02T09:46:15.550Z,54.53
2023-04-02T09:49:01.483Z,54.65
2023-04-02T09:51:33.381Z,53.31
2023-04-02T09:54:03.205Z,49.28
2023-04-02T09:56:32.844Z,45.97
2023-04-02T09:59:19.420Z,40.44
2023-04-02T10:02:23.569Z,37.73
2023-04-02T10:04:51.014Z,39.51
2023-04-02T10:07:36.759Z,36.73
2023-04-02T10:10:28.188Z,34.31
2023-04-02T10:13:04.321Z,32.15
2023-04-02T10:15:53.898Z,36.83
2023-04-02T10:18:35.870Z,38.06
2023-04-02T10:21:04.715Z,41.19
2023-04-02T10:23:32.734Z,42.53
2023-04-02T10:26:15.822Z,45.40
2023-04-02T10:28:54.772Z,47.85
2023-04-02T10:31:26.514Z,48.72
2023-04-02T10:34:10.062Z,50.99
2023-04-02T10:36:58.104Z,50.02
2023-04-02T10:39:41.597Z,49.90
2023-04-02T10:42:27.608Z,49.07
2023-04-02T10:45:19.943Z,50.56
2023-04-02T10:48:02.109Z,50.24
2023-04-02T10:50:55.535Z,47.35
2023-04-02T10:53:33.603Z,48.81
2023-04-02T10:56:05.769Z,50.09
2023-04-02T10:58:39.534Z,49.98
2023-04-02T11:01:13.670Z,49.22
2023-04-02T11:03:58.186Z,49.83
2023-04-02T11:06:58.053Z,48.54
2023-04-02T11:09:37.402Z,48.61
2023-04-02T11:12:06.502Z,48.23
2023-04-02T11:14:33.842Z,49.91
2023-04-02T11:17:04.472Z,50.79
2023-04-02T11:19:36.111Z,51.53
2023-04-02T11:22:22.364Z,52.09
2023-04-02T11:24:54.854Z,50.32
2023-04-02T11:27:24.945Z,45.81
2023-04-02T11:30:22.920Z,45.17
2023-04-02T11:32:50.420Z,45.61
2023-04-02T11:35:32.622Z,46.38
2023-04-02T11:38:04.400Z,46.90
2023-04-02T11:40:54.919Z,47.80
2023-04-02T11:43:34.313Z,47.05
2023-04-02T11:46:20.693Z,47.19
2023-04-02T11:48:47.846Z,47.49
2023-04-02T11:51:21.384Z,46.26
2023-04-02T11:53:50.275Z,45.67
2023-04-02T11:56:37.629Z,43.83
2023-04-02T11:59:10.603Z,43.28
2023-04-02T12:01:59.459Z,42.93
2023-04-02T12:04:53.353Z,43.25
2023-04-02T12:08:05.271Z,43.17
2023-04-02T12:10:53.374Z,43.06
2023-04-02T12:13:40.695Z,43.33
2023-04-02T12:16:14.482Z,42.25
2023-04-02T12:18:53.983Z,42.28
2023-04-02T12:21:25.957Z,43.98
2023-04-02T12:23:56.969Z,43.91
2023-04-02T12:26:39.021Z,44.93
2023-04-02T12:29:15.165Z,45.28
2023-04-02T12:31:48.173Z,46.17
2023-04-02T12:34:18.539Z,47.91
2023-04-02T12:37:20.667Z,47.70
2023-04-02T12:40:17.735Z,48.04
2023-04-02T12:42:44.665Z,49.33
2023-04-02T12:45:31.201Z,50.86
2023-04-02T12:48:03.227Z,51.93
2023-04-02T12:50:30.250Z,52.03
2023-04-02T12:52:59.099Z,52.74
2023-04-02T12:55:27.610Z,53.91
2023-04-02T12:57:59.147Z,54.41
2023-04-02T13:00:26.008Z,54.55
2023-04-02T13:03:05.964Z,53.59
2023-04-02T13:05:34.767Z,53.16
2023-04-02T13:08:02.022Z,53.56
2023-04-02T13:10:29.015Z,54.10
2023-04-02T13:13:01.244Z,54.44
2023-04-02T13:15:31.625Z,54.24
2023-04-02T13:18:05.041Z,53.31
2023-04-02T13:20:41.369Z,51.71
2023-04-02T13:23:30.014Z,49.59
2023-04-02T13:26:17.455Z,49.07
2023-04-02T13:29:01.755Z,48.49
2023-04-02T13:31:31.041Z,48.58
2023-04-02T13:33:58.843Z,50.02
2023-04-02T13:36:26.501Z,49.35
2023-04-02T13:38:53.408Z,49.33
2023-04-02T13:41:25.194Z,49.60
2023-04-02T13:43:54.368Z,50.23
2023-04-02T13:46:24.858Z,50.39
2023-04-02T13:48:53.511Z,50.09
2023-04-02T13:51:25.483Z,50.36
2023-04-02T13:53:57.270Z,50.62
2023-04-02T13:56:25.056Z,50.37
2023-04-02T13:58:52.485Z,51.26
2023-04-02T14:01:21.974Z,51.10
2023-04-02T14:03:49.042Z,51.09
2023-04-02T14:06:29.192Z,51.53
2023-04-02T14:09:09.808Z,51.55
2023-04-02T14:11:36.701Z,50.69
2023-04-02T14:14:25.132Z,51.23
2023-04-02T14:16:57.852Z,51.42
2023-04-02T14:20:01.904Z,51.40
2023-04-02T14:22:44.095Z,50.72
2023-04-02T14:25:38.665Z,50.87
2023-04-02T14:28:20.597Z,51.27
2023-04-02T14:31:38.124Z,51.38
2023-04-02T14:34:16.632Z,50.99
2023-04-02T14:36:56.557Z,50.97
2023-04-02T14:39:31.758Z,51.07
2023-04-02T14:42:04.637Z,50.73
2023-04-02T14:44:42.497Z,50.61
2023-04-02T14:47:25.103Z,51.03
2023-04-02T14:49:59.087Z,51.34
2023-04-02T14:52:28.721Z,50.92
2023-04-02T14:55:12.085Z,50.94
2023-04-02T14:57:49.046Z,50.66
2023-04-02T15:00:40.549Z,51.69
2023-04-02T15:03:25.084Z,51.62
2023-04-02T15:05:59.141Z,51.47
2023-04-02T15:08:37.194Z,52.32
2023-04-02T15:11:13.349Z,52.60
2023-04-02T15:13:49.802Z,52.49
2023-04-02T15:16:19.694Z,52.31
2023-04-02T15:18:51.272Z,52.53
2023-04-02T15:21:25.618Z,52.15
2023-04-02T15:24:11.570Z,52.18
2023-04-02T15:27:00.440Z,52.75
2023-04-02T15:30:15.067Z,53.13
2023-04-02T15:32:43.722Z,53.25
2023-04-02T15:35:16.749Z,53.76
2023-04-02T15:37:58.143Z,53.82
2023-04-02T15:40:43.219Z,53.21
2023-04-02T15:43:16.343Z,54.10
2023-04-02T15:46:26.172Z,53.51
2023-04-02T15:49:29.778Z,53.98
2023-04-02T15:52:30.505Z,54.20
2023-04-02T15:55:28.661Z,54.12
2023-04-02T15:58:04.575Z,54.13
2023-04-02T16:00:36.130Z,54.17
2023-04-02T16:03:24.634Z,53.64
2023-04-02T16:06:06.783Z,53.96
2023-04-02T16:08:41.529Z,54.80
2023-04-02T16:11:15.033Z,54.93
2023-04-02T16:13:43.273Z,54.52
2023-04-02T16:16:30.885Z,54.66
2023-04-02T16:19:21.048Z,55.22
2023-04-02T16:21:54.625Z,55.21
2023-04-02T16:24:22.712Z,55.62
2023-04-02T16:27:20.678Z,56.25
2023-04-02T16:30:05.905Z,57.21
2023-04-02T16:32:52.791Z,57.13
2023-04-02T16:35:44.544Z,57.30
2023-04-02T16:38:34.821Z,58.11
2023-04-02T16:41:39.014Z,65.50
2023-04-02T16:44:20.326Z,70.57
2023-04-02T16:47:05.667Z,72.14
2023-04-02T16:49:54.122Z,73.77
2023-04-02T16:52:38.248Z,77.78
2023-04-02T16:55:10.137Z,79.26
2023-04-02T16:57:44.799Z,80.91
2023-04-02T17:00:23.840Z,82.77
2023-04-02T17:03:06.188Z,84.01
2023-04-02T17:05:47.291Z,84.59
2023-04-02T17:08:17.201Z,84.28
2023-04-02T17:11:01.671Z,84.93
2023-04-02T17:13:48.870Z,85.00
2023-04-02T17:16:23.009Z,85.80
2023-04-02T17:18:53.257Z,85.61
2023-04-02T17:21:24.767Z,85.91
2023-04-02T17:23:56.713Z,85.91
2023-04-02T17:26:28.125Z,85.95
2023-04-02T17:28:58.700Z,86.21
2023-04-02T17:31:30.969Z,86.43
2023-04-02T17:33:57.954Z,86.99
2023-04-02T17:36:42.451Z,87.23
2023-04-02T17:39:40.649Z,89.20
2023-04-02T17:42:20.469Z,93.92
2023-04-02T17:45:01.569Z,87.95
2023-04-02T17:47:46.646Z,89.12
2023-04-02T17:50:34.653Z,90.48
2023-04-02T17:53:10.009Z,88.66
2023-04-02T17:56:01.483Z,86.81
2023-04-02T17:58:49.801Z,94.52
2023-04-02T18:01:55.944Z,87.69
2023-04-02T18:04:49.014Z,84.72
2023-04-02T18:07:24.715Z,90.04
2023-04-02T18:10:04.086Z,86.47
2023-04-02T18:12:31.494Z,87.12
2023-04-02T18:15:04.182Z,90.21
2023-04-02T18:17:39.945Z,86.41
2023-04-02T18:20:35.438Z,87.98
2023-04-02T18:23:21.674Z,88.13
2023-04-02T18:26:27.952Z,83.77
2023-04-02T18:29:03.906Z,90.75
2023-04-02T18:32:18.538Z,87.86
2023-04-02T18:35:00.637Z,87.01
2023-04-02T18:37:43.265Z,89.94
2023-04-02T18:40:49.832Z,85.32
2023-04-02T18:43:38.213Z,89.54
2023-04-02T18:46:32.418Z,87.95
2023-04-02T18:49:19.357Z,82.44
2023-04-02T18:51:50.286Z,87.59
2023-04-02T18:54:30.121Z,86.73
2023-04-02T18:56:57.123Z,85.71
2023-04-02T19:00:04.560Z,87.33
2023-04-02T19:02:48.870Z,84.53
2023-04-02T19:05:37.960Z,89.71
2023-04-02T19:08:31.490Z,86.11
2023-04-02T19:11:02.220Z,86.88
2023-04-02T19:13:29.397Z,87.13
2023-04-02T19:16:17.586Z,85.45
2023-04-02T19:18:55.898Z,86.00
2023-04-02T19:22:20.022Z,85.77
2023-04-02T19:25:08.845Z,85.83
2023-04-02T19:28:08.773Z,86.62
2023-04-02T19:42:35.998Z,87.11
2023-04-02T19:45:03.319Z,84.25
2023-04-02T19:47:30.302Z,85.18
2023-04-02T19:49:57.223Z,85.79
2023-04-02T19:52:24.091Z,84.43
2023-04-02T19:54:50.870Z,84.30
2023-04-02T19:57:18.106Z,83.83
2023-04-02T19:59:45.012Z,83.09
2023-04-02T20:02:11.976Z,84.32
2023-04-02T20:04:38.859Z,83.27
2023-04-02T20:07:05.860Z,82.75
2023-04-02T20:09:32.672Z,83.15
2023-04-02T20:11:59.665Z,82.83
2023-04-02T20:14:26.544Z,82.62
2023-04-02T20:16:53.658Z,84.63
2023-04-02T20:19:20.776Z,81.79
2023-04-02T20:21:47.882Z,80.99
2023-04-02T20:24:14.885Z,81.95
2023-04-02T20:26:41.926Z,81.54
2023-04-02T20:29:08.979Z,80.53
2023-04-02T20:31:36.257Z,84.67
2023-04-02T20:34:05.686Z,81.57
2023-04-02T20:36:33.004Z,80.75
2023-04-02T20:39:00.190Z,84.23
2023-04-02T20:41:27.621Z,80.93
2023-04-02T20:43:54.856Z,78.61
2023-04-02T20:46:22.511Z,79.74
2023-04-02T20:48:49.754Z,80.55
2023-04-02T20:51:16.940Z,80.35
2023-04-02T20:53:44.500Z,81.51
2023-04-02T20:56:14.464Z,81.56
2023-04-02T20:58:42.130Z,81.51
2023-04-02T21:01:09.533Z,82.17
2023-04-02T21:03:37.122Z,82.62
2023-04-02T21:06:04.315Z,79.20
2023-04-02T21:08:31.771Z,79.53
2023-04-02T21:11:04.044Z,80.47
2023-04-02T21:13:32.624Z,80.63
2023-04-02T21:16:00.291Z,79.51
2023-04-02T21:18:27.285Z,80.45
2023-04-02T21:21:02.569Z,79.12
2023-04-02T21:23:30.062Z,78.89
2023-04-02T21:26:01.735Z,80.09
2023-04-02T21:28:28.907Z,79.82
2023-04-02T21:31:11.719Z,79.35
2023-04-02T21:33:41.760Z,81.10
2023-04-02T21:36:12.104Z,80.00
2023-04-02T21:38:44.344Z,79.62
2023-04-02T21:41:16.956Z,80.08
2023-04-02T21:43:46.219Z,78.73
2023-04-02T21:46:13.384Z,76.91
2023-04-02T21:48:42.154Z,78.33
2023-04-02T21:51:15.872Z,77.92
2023-04-02T21:53:43.630Z,76.99
2023-04-02T21:56:22.908Z,76.86
2023-04-02T21:58:51.547Z,77.17
2023-04-02T22:01:27.097Z,76.92
2023-04-02T22:03:56.537Z,76.23
2023-04-02T22:06:26.029Z,72.90
2023-04-02T22:08:58.940Z,75.56
2023-04-02T22:11:36.498Z,74.16
2023-04-02T22:14:04.214Z,74.29
2023-04-02T22:16:33.615Z,74.09
2023-04-02T22:19:02.967Z,73.92
2023-04-02T22:21:31.183Z,73.19
2023-04-02T22:24:03.192Z,72.81
2023-04-02T22:26:31.941Z,72.66
2023-04-02T22:29:00.493Z,73.68
2023-04-02T22:31:29.904Z,75.08
2023-04-02T22:33:57.649Z,75.94
2023-04-02T22:36:26.029Z,75.75
2023-04-02T22:38:53.674Z,75.42
2023-04-02T22:41:25.759Z,75.94
2023-04-02T22:43:53.088Z,75.91
2023-04-02T22:46:20.928Z,74.90
2023-04-02T22:48:49.844Z,76.39
2023-04-02T22:51:19.218Z,77.03
2023-04-02T22:53:46.843Z,77.67
2023-04-02T22:56:19.291Z,77.35
2023-04-02T22:58:46.651Z,77.35
2023-04-02T23:01:17.895Z,76.70
2023-04-02T23:03:45.111Z,76.97
2023-04-02T23:06:15.167Z,78.27
2023-04-02T23:08:42.539Z,78.17
2023-04-02T23:11:22.151Z,79.00
2023-04-02T23:13:51.682Z,78.79
2023-04-02T23:16:19.915Z,78.98
2023-04-02T23:18:48.372Z,78.96
2023-04-02T23:21:16.567Z,79.20
2023-04-02T23:23:44.528Z,80.23
2023-04-02T23:26:16.195Z,80.34
2023-04-02T23:28:43.918Z,80.10
2023-04-02T23:31:19.991Z,80.26
2023-04-02T23:33:47.182Z,81.23
2023-04-02T23:36:22.353Z,81.61
2023-04-02T23:38:52.162Z,82.39
2023-04-02T23:41:19.107Z,82.66
2023-04-02T23:43:46.158Z,82.86
2023-04-02T23:46:13.146Z,83.17
2023-04-02T23:48:40.451Z,83.66
2023-04-02T23:51:07.407Z,84.68
2023-04-02T23:53:34.984Z,84.77
2023-04-02T23:56:02.008Z,85.14
2023-04-02T23:58:29.723Z,84.76
